sensor_id;sensor_type;location;lat;lon;timestamp;temperature;humidity
20158;DHT22;10239;56.820;24.416;2023-04-06T00:01:53;3.50;99.90
20158;DHT22;10239;56.820;24.416;2023-04-06T00:04:20;3.50;99.90
20158;DHT22;10239;56.820;24.416;2023-04-06T00:06:48;3.50;99.90
20158;DHT22;10239;56.820;24.416;2023-04-06T00:09:16;3.50;99.90
20158;DHT22;10239;56.820;24.416;2023-04-06T00:11:44;3.50;99.90
20158;DHT22;10239;56.820;24.416;2023-04-06T00:14:12;3.50;99.90
20158;DHT22;10239;56.820;24.416;2023-04-06T00:16:41;3.60;99.90
20158;DHT22;10239;56.820;24.416;2023-04-06T00:19:09;3.70;99.90
20158;DHT22;10239;56.820;24.416;2023-04-06T00:21:37;3.70;99.90
20158;DHT22;10239;56.820;24.416;2023-04-06T00:24:05;3.70;99.90
20158;DHT22;10239;56.820;24.416;2023-04-06T00:26:33;3.60;99.90
20158;DHT22;10239;56.820;24.416;2023-04-06T00:29:02;3.60;99.90
20158;DHT22;10239;56.820;24.416;2023-04-06T00:31:30;3.70;99.90
20158;DHT22;10239;56.820;24.416;2023-04-06T00:33:58;3.70;99.90
20158;DHT22;10239;56.820;24.416;2023-04-06T00:36:26;3.70;99.90
20158;DHT22;10239;56.820;24.416;2023-04-06T00:38:54;3.80;99.90
20158;DHT22;10239;56.820;24.416;2023-04-06T00:41:22;3.80;99.90
20158;DHT22;10239;56.820;24.416;2023-04-06T00:43:50;3.70;99.90
20158;DHT22;10239;56.820;24.416;2023-04-06T00:46:18;3.70;99.90
20158;DHT22;10239;56.820;24.416;2023-04-06T00:48:46;3.70;99.90
20158;DHT22;10239;56.820;24.416;2023-04-06T00:51:14;3.60;99.90
20158;DHT22;10239;56.820;24.416;2023-04-06T00:53:42;3.60;99.90
20158;DHT22;10239;56.820;24.416;2023-04-06T00:56:11;3.60;99.90
20158;DHT22;10239;56.820;24.416;2023-04-06T00:58:51;3.60;99.90
20158;DHT22;10239;56.820;24.416;2023-04-06T01:01:20;3.70;99.90
20158;DHT22;10239;56.820;24.416;2023-04-06T01:03:50;3.70;99.90
20158;DHT22;10239;56.820;24.416;2023-04-06T01:06:19;3.80;99.90
20158;DHT22;10239;56.820;24.416;2023-04-06T01:08:56;3.70;99.90
20158;DHT22;10239;56.820;24.416;2023-04-06T01:11:26;3.70;99.90
20158;DHT22;10239;56.820;24.416;2023-04-06T01:13:54;3.80;99.90
20158;DHT22;10239;56.820;24.416;2023-04-06T01:16:38;3.80;99.90
20158;DHT22;10239;56.820;24.416;2023-04-06T01:19:15;3.80;99.90
20158;DHT22;10239;56.820;24.416;2023-04-06T01:21:47;3.80;99.90
20158;DHT22;10239;56.820;24.416;2023-04-06T01:24:37;3.80;99.90
20158;DHT22;10239;56.820;24.416;2023-04-06T01:27:15;3.90;99.90
20158;DHT22;10239;56.820;24.416;2023-04-06T01:29:54;3.90;99.90
20158;DHT22;10239;56.820;24.416;2023-04-06T01:32:44;3.90;99.90
20158;DHT22;10239;56.820;24.416;2023-04-06T01:35:15;4.00;99.90
20158;DHT22;10239;56.820;24.416;2023-04-06T01:37:53;4.00;99.90
20158;DHT22;10239;56.820;24.416;2023-04-06T01:40:27;4.00;99.90
20158;DHT22;10239;56.820;24.416;2023-04-06T01:42:55;4.00;99.90
20158;DHT22;10239;56.820;24.416;2023-04-06T01:45:32;4.00;99.90
20158;DHT22;10239;56.820;24.416;2023-04-06T01:48:10;3.90;99.90
20158;DHT22;10239;56.820;24.416;2023-04-06T01:50:38;4.00;99.90
20158;DHT22;10239;56.820;24.416;2023-04-06T01:53:07;3.90;99.90
20158;DHT22;10239;56.820;24.416;2023-04-06T01:55:37;4.00;99.90
20158;DHT22;10239;56.820;24.416;2023-04-06T01:58:23;3.90;99.90
20158;DHT22;10239;56.820;24.416;2023-04-06T02:00:50;4.00;99.90
20158;DHT22;10239;56.820;24.416;2023-04-06T02:03:18;4.00;99.90
20158;DHT22;10239;56.820;24.416;2023-04-06T02:05:51;3.90;99.90
20158;DHT22;10239;56.820;24.416;2023-04-06T02:08:27;4.00;99.90
20158;DHT22;10239;56.820;24.416;2023-04-06T02:10:55;4.00;99.90
20158;DHT22;10239;56.820;24.416;2023-04-06T02:13:33;4.00;99.90
20158;DHT22;10239;56.820;24.416;2023-04-06T02:16:02;4.10;99.90
20158;DHT22;10239;56.820;24.416;2023-04-06T02:18:31;4.00;99.90
20158;DHT22;10239;56.820;24.416;2023-04-06T02:20:58;3.90;99.90
20158;DHT22;10239;56.820;24.416;2023-04-06T02:23:26;4.00;99.90
20158;DHT22;10239;56.820;24.416;2023-04-06T02:25:57;3.90;99.90
20158;DHT22;10239;56.820;24.416;2023-04-06T02:28:24;4.00;99.90
20158;DHT22;10239;56.820;24.416;2023-04-06T02:30:52;3.90;99.90
20158;DHT22;10239;56.820;24.416;2023-04-06T02:33:24;3.90;99.90
20158;DHT22;10239;56.820;24.416;2023-04-06T02:35:52;3.90;99.90
20158;DHT22;10239;56.820;24.416;2023-04-06T02:38:20;3.90;99.90
20158;DHT22;10239;56.820;24.416;2023-04-06T02:40:48;3.90;99.90
20158;DHT22;10239;56.820;24.416;2023-04-06T02:43:22;4.00;99.90
20158;DHT22;10239;56.820;24.416;2023-04-06T02:45:55;4.00;99.90
20158;DHT22;10239;56.820;24.416;2023-04-06T02:48:24;4.10;99.90
20158;DHT22;10239;56.820;24.416;2023-04-06T02:50:52;4.00;99.90
20158;DHT22;10239;56.820;24.416;2023-04-06T02:53:20;4.10;99.90
20158;DHT22;10239;56.820;24.416;2023-04-06T02:55:48;4.10;99.90
20158;DHT22;10239;56.820;24.416;2023-04-06T02:58:16;4.10;99.90
20158;DHT22;10239;56.820;24.416;2023-04-06T03:00:48;4.10;99.90
20158;DHT22;10239;56.820;24.416;2023-04-06T03:03:16;4.10;99.90
20158;DHT22;10239;56.820;24.416;2023-04-06T03:05:45;4.10;99.90
20158;DHT22;10239;56.820;24.416;2023-04-06T03:08:13;4.00;99.90
20158;DHT22;10239;56.820;24.416;2023-04-06T03:10:44;4.10;99.90
20158;DHT22;10239;56.820;24.416;2023-04-06T03:13:13;4.10;99.90
20158;DHT22;10239;56.820;24.416;2023-04-06T03:15:53;4.20;99.90
20158;DHT22;10239;56.820;24.416;2023-04-06T03:18:23;4.10;99.90
20158;DHT22;10239;56.820;24.416;2023-04-06T03:20:52;4.10;99.90
20158;DHT22;10239;56.820;24.416;2023-04-06T03:23:29;4.20;99.90
20158;DHT22;10239;56.820;24.416;2023-04-06T03:26:00;4.20;99.90
20158;DHT22;10239;56.820;24.416;2023-04-06T03:28:29;4.30;99.90
20158;DHT22;10239;56.820;24.416;2023-04-06T03:31:01;4.20;99.90
20158;DHT22;10239;56.820;24.416;2023-04-06T03:33:47;4.20;99.90
20158;DHT22;10239;56.820;24.416;2023-04-06T03:36:23;4.30;99.90
20158;DHT22;10239;56.820;24.416;2023-04-06T03:38:55;4.30;99.90
20158;DHT22;10239;56.820;24.416;2023-04-06T03:41:23;4.30;99.90
20158;DHT22;10239;56.820;24.416;2023-04-06T03:43:58;4.30;99.90
20158;DHT22;10239;56.820;24.416;2023-04-06T03:46:26;4.30;99.90
20158;DHT22;10239;56.820;24.416;2023-04-06T03:48:56;4.30;99.90
20158;DHT22;10239;56.820;24.416;2023-04-06T03:51:25;4.30;99.90
20158;DHT22;10239;56.820;24.416;2023-04-06T03:53:53;4.30;99.90
20158;DHT22;10239;56.820;24.416;2023-04-06T03:56:21;4.30;99.90
20158;DHT22;10239;56.820;24.416;2023-04-06T03:58:49;4.30;99.90
20158;DHT22;10239;56.820;24.416;2023-04-06T04:01:20;4.30;99.90
20158;DHT22;10239;56.820;24.416;2023-04-06T04:03:48;4.30;99.90
20158;DHT22;10239;56.820;24.416;2023-04-06T04:06:18;4.40;99.90
20158;DHT22;10239;56.820;24.416;2023-04-06T04:08:45;4.30;99.90
20158;DHT22;10239;56.820;24.416;2023-04-06T04:11:16;4.40;99.90
20158;DHT22;10239;56.820;24.416;2023-04-06T04:13:47;4.40;99.90
20158;DHT22;10239;56.820;24.416;2023-04-06T04:16:15;4.40;99.90
20158;DHT22;10239;56.820;24.416;2023-04-06T04:18:43;4.40;99.90
20158;DHT22;10239;56.820;24.416;2023-04-06T04:21:11;4.40;99.90
20158;DHT22;10239;56.820;24.416;2023-04-06T04:23:39;4.40;99.90
20158;DHT22;10239;56.820;24.416;2023-04-06T04:26:08;4.30;99.90
20158;DHT22;10239;56.820;24.416;2023-04-06T04:28:39;4.30;99.90
20158;DHT22;10239;56.820;24.416;2023-04-06T04:31:07;4.40;99.90
20158;DHT22;10239;56.820;24.416;2023-04-06T04:33:35;4.40;99.90
20158;DHT22;10239;56.820;24.416;2023-04-06T04:36:09;4.50;99.90
20158;DHT22;10239;56.820;24.416;2023-04-06T04:38:41;4.50;99.90
20158;DHT22;10239;56.820;24.416;2023-04-06T04:41:09;4.40;99.90
20158;DHT22;10239;56.820;24.416;2023-04-06T04:43:40;4.50;99.90
20158;DHT22;10239;56.820;24.416;2023-04-06T04:46:09;4.50;99.90
20158;DHT22;10239;56.820;24.416;2023-04-06T04:48:42;4.60;99.90
20158;DHT22;10239;56.820;24.416;2023-04-06T04:51:10;4.60;99.90
20158;DHT22;10239;56.820;24.416;2023-04-06T04:54:04;4.70;99.90
20158;DHT22;10239;56.820;24.416;2023-04-06T04:56:32;4.70;99.90
20158;DHT22;10239;56.820;24.416;2023-04-06T04:59:18;4.70;99.90
20158;DHT22;10239;56.820;24.416;2023-04-06T05:01:54;4.80;99.90
20158;DHT22;10239;56.820;24.416;2023-04-06T05:04:30;4.80;99.90
20158;DHT22;10239;56.820;24.416;2023-04-06T05:07:05;4.90;99.90
20158;DHT22;10239;56.820;24.416;2023-04-06T05:09:34;4.80;99.90
20158;DHT22;10239;56.820;24.416;2023-04-06T05:12:03;4.80;99.90
20158;DHT22;10239;56.820;24.416;2023-04-06T05:14:36;4.80;99.90
20158;DHT22;10239;56.820;24.416;2023-04-06T05:17:10;4.80;99.90
20158;DHT22;10239;56.820;24.416;2023-04-06T05:19:38;4.80;99.90
20158;DHT22;10239;56.820;24.416;2023-04-06T05:22:07;4.80;99.90
20158;DHT22;10239;56.820;24.416;2023-04-06T05:24:37;4.80;99.90
20158;DHT22;10239;56.820;24.416;2023-04-06T05:27:06;4.90;99.90
20158;DHT22;10239;56.820;24.416;2023-04-06T05:29:35;4.90;99.90
20158;DHT22;10239;56.820;24.416;2023-04-06T05:32:03;4.90;99.90
20158;DHT22;10239;56.820;24.416;2023-04-06T05:34:31;5.00;99.90
20158;DHT22;10239;56.820;24.416;2023-04-06T05:37:03;5.00;99.90
20158;DHT22;10239;56.820;24.416;2023-04-06T05:39:31;5.00;99.90
20158;DHT22;10239;56.820;24.416;2023-04-06T05:42:04;5.00;99.90
20158;DHT22;10239;56.820;24.416;2023-04-06T05:44:46;4.90;99.90
20158;DHT22;10239;56.820;24.416;2023-04-06T05:47:15;5.00;99.90
20158;DHT22;10239;56.820;24.416;2023-04-06T05:49:47;5.00;99.90
20158;DHT22;10239;56.820;24.416;2023-04-06T05:52:30;5.10;99.90
20158;DHT22;10239;56.820;24.416;2023-04-06T05:54:58;5.20;99.90
20158;DHT22;10239;56.820;24.416;2023-04-06T05:57:27;5.20;99.90
20158;DHT22;10239;56.820;24.416;2023-04-06T05:59:55;5.20;99.90
20158;DHT22;10239;56.820;24.416;2023-04-06T06:02:29;5.20;99.90
20158;DHT22;10239;56.820;24.416;2023-04-06T06:04:59;5.20;99.90
20158;DHT22;10239;56.820;24.416;2023-04-06T06:07:27;5.30;99.90
20158;DHT22;10239;56.820;24.416;2023-04-06T06:09:59;5.30;99.90
20158;DHT22;10239;56.820;24.416;2023-04-06T06:12:32;5.30;99.90
20158;DHT22;10239;56.820;24.416;2023-04-06T06:15:01;5.30;99.90
20158;DHT22;10239;56.820;24.416;2023-04-06T06:17:32;5.40;99.90
20158;DHT22;10239;56.820;24.416;2023-04-06T06:20:02;5.50;99.90
20158;DHT22;10239;56.820;24.416;2023-04-06T06:22:31;5.60;99.90
20158;DHT22;10239;56.820;24.416;2023-04-06T06:24:59;5.60;99.90
20158;DHT22;10239;56.820;24.416;2023-04-06T06:27:27;5.60;99.90
20158;DHT22;10239;56.820;24.416;2023-04-06T06:29:55;5.60;99.90
20158;DHT22;10239;56.820;24.416;2023-04-06T06:32:24;5.70;99.90
20158;DHT22;10239;56.820;24.416;2023-04-06T06:34:54;5.80;99.90
20158;DHT22;10239;56.820;24.416;2023-04-06T06:37:22;5.90;99.90
20158;DHT22;10239;56.820;24.416;2023-04-06T06:39:49;6.00;99.90
20158;DHT22;10239;56.820;24.416;2023-04-06T06:42:19;6.10;99.90
20158;DHT22;10239;56.820;24.416;2023-04-06T06:45:20;6.10;99.90
20158;DHT22;10239;56.820;24.416;2023-04-06T06:47:48;6.20;99.90
20158;DHT22;10239;56.820;24.416;2023-04-06T06:50:19;6.30;99.90
20158;DHT22;10239;56.820;24.416;2023-04-06T06:52:47;6.30;99.90
20158;DHT22;10239;56.820;24.416;2023-04-06T06:55:15;6.40;99.90
20158;DHT22;10239;56.820;24.416;2023-04-06T06:57:43;6.50;99.90
20158;DHT22;10239;56.820;24.416;2023-04-06T07:00:14;6.50;99.90
20158;DHT22;10239;56.820;24.416;2023-04-06T07:02:45;6.60;99.90
20158;DHT22;10239;56.820;24.416;2023-04-06T07:05:13;6.70;99.90
20158;DHT22;10239;56.820;24.416;2023-04-06T07:07:55;6.70;99.90
20158;DHT22;10239;56.820;24.416;2023-04-06T07:10:26;6.60;99.90
20158;DHT22;10239;56.820;24.416;2023-04-06T07:12:54;6.70;99.90
20158;DHT22;10239;56.820;24.416;2023-04-06T07:15:22;6.80;99.90
20158;DHT22;10239;56.820;24.416;2023-04-06T07:17:51;6.80;99.90
20158;DHT22;10239;56.820;24.416;2023-04-06T07:20:20;6.90;99.90
20158;DHT22;10239;56.820;24.416;2023-04-06T07:22:48;7.10;99.90
20158;DHT22;10239;56.820;24.416;2023-04-06T07:25:16;7.10;99.90
20158;DHT22;10239;56.820;24.416;2023-04-06T07:27:44;7.20;99.90
20158;DHT22;10239;56.820;24.416;2023-04-06T07:30:12;7.20;99.90
20158;DHT22;10239;56.820;24.416;2023-04-06T07:32:40;7.30;99.90
20158;DHT22;10239;56.820;24.416;2023-04-06T07:35:09;7.50;99.90
20158;DHT22;10239;56.820;24.416;2023-04-06T07:37:37;7.50;99.90
20158;DHT22;10239;56.820;24.416;2023-04-06T07:40:06;7.70;99.90
20158;DHT22;10239;56.820;24.416;2023-04-06T07:42:34;7.70;99.90
20158;DHT22;10239;56.820;24.416;2023-04-06T07:45:05;7.80;99.90
20158;DHT22;10239;56.820;24.416;2023-04-06T07:47:33;7.80;99.90
20158;DHT22;10239;56.820;24.416;2023-04-06T07:50:02;7.60;99.90
20158;DHT22;10239;56.820;24.416;2023-04-06T07:52:31;7.50;99.90
20158;DHT22;10239;56.820;24.416;2023-04-06T07:55:05;7.50;99.90
20158;DHT22;10239;56.820;24.416;2023-04-06T07:57:33;7.60;99.90
20158;DHT22;10239;56.820;24.416;2023-04-06T08:00:01;7.60;99.90
20158;DHT22;10239;56.820;24.416;2023-04-06T08:02:38;7.60;99.90
20158;DHT22;10239;56.820;24.416;2023-04-06T08:05:07;7.60;99.90
20158;DHT22;10239;56.820;24.416;2023-04-06T08:07:35;7.50;99.90
20158;DHT22;10239;56.820;24.416;2023-04-06T08:10:04;7.70;99.90
20158;DHT22;10239;56.820;24.416;2023-04-06T08:12:33;7.70;99.90
20158;DHT22;10239;56.820;24.416;2023-04-06T08:15:02;7.90;99.90
20158;DHT22;10239;56.820;24.416;2023-04-06T08:17:34;7.80;99.90
20158;DHT22;10239;56.820;24.416;2023-04-06T08:20:03;7.80;99.90
20158;DHT22;10239;56.820;24.416;2023-04-06T08:22:31;7.90;99.90
20158;DHT22;10239;56.820;24.416;2023-04-06T08:24:59;7.90;99.90
20158;DHT22;10239;56.820;24.416;2023-04-06T08:27:27;7.90;99.90
20158;DHT22;10239;56.820;24.416;2023-04-06T08:29:55;7.90;99.90
20158;DHT22;10239;56.820;24.416;2023-04-06T08:32:23;7.90;99.90
20158;DHT22;10239;56.820;24.416;2023-04-06T08:34:55;7.90;99.90
20158;DHT22;10239;56.820;24.416;2023-04-06T08:37:24;7.80;99.90
20158;DHT22;10239;56.820;24.416;2023-04-06T08:39:52;7.90;99.90
20158;DHT22;10239;56.820;24.416;2023-04-06T08:42:21;7.90;99.90
20158;DHT22;10239;56.820;24.416;2023-04-06T08:44:53;7.90;99.90
20158;DHT22;10239;56.820;24.416;2023-04-06T08:47:22;8.00;99.90
20158;DHT22;10239;56.820;24.416;2023-04-06T08:49:53;8.00;99.90
20158;DHT22;10239;56.820;24.416;2023-04-06T08:52:21;8.00;99.90
20158;DHT22;10239;56.820;24.416;2023-04-06T08:54:48;8.10;99.90
20158;DHT22;10239;56.820;24.416;2023-04-06T08:57:16;8.20;99.90
20158;DHT22;10239;56.820;24.416;2023-04-06T08:59:48;8.30;99.90
20158;DHT22;10239;56.820;24.416;2023-04-06T09:02:21;8.20;99.90
20158;DHT22;10239;56.820;24.416;2023-04-06T09:04:53;8.20;99.90
20158;DHT22;10239;56.820;24.416;2023-04-06T09:07:21;8.30;99.90
20158;DHT22;10239;56.820;24.416;2023-04-06T09:09:49;8.40;99.90
20158;DHT22;10239;56.820;24.416;2023-04-06T09:12:31;8.40;99.90
20158;DHT22;10239;56.820;24.416;2023-04-06T09:15:01;8.40;99.90
20158;DHT22;10239;56.820;24.416;2023-04-06T09:17:33;8.70;99.90
20158;DHT22;10239;56.820;24.416;2023-04-06T09:20:01;8.70;99.90
20158;DHT22;10239;56.820;24.416;2023-04-06T09:22:37;8.70;99.90
20158;DHT22;10239;56.820;24.416;2023-04-06T09:25:06;8.60;99.90
20158;DHT22;10239;56.820;24.416;2023-04-06T09:27:36;8.60;99.90
20158;DHT22;10239;56.820;24.416;2023-04-06T09:35:14;8.60;99.90
20158;DHT22;10239;56.820;24.416;2023-04-06T09:40:32;8.70;99.90
20158;DHT22;10239;56.820;24.416;2023-04-06T09:43:00;8.70;99.90
20158;DHT22;10239;56.820;24.416;2023-04-06T09:45:29;8.50;99.90
20158;DHT22;10239;56.820;24.416;2023-04-06T09:47:59;8.60;99.90
20158;DHT22;10239;56.820;24.416;2023-04-06T09:57:32;8.70;99.90
20158;DHT22;10239;56.820;24.416;2023-04-06T10:00:44;8.80;99.90
20158;DHT22;10239;56.820;24.416;2023-04-06T10:03:46;8.70;99.90
20158;DHT22;10239;56.820;24.416;2023-04-06T10:06:49;8.60;99.90
20158;DHT22;10239;56.820;24.416;2023-04-06T10:09:25;8.60;99.90
20158;DHT22;10239;56.820;24.416;2023-04-06T10:11:53;8.60;99.90
20158;DHT22;10239;56.820;24.416;2023-04-06T10:14:22;8.50;99.90
20158;DHT22;10239;56.820;24.416;2023-04-06T10:16:50;8.40;99.90
20158;DHT22;10239;56.820;24.416;2023-04-06T10:19:24;8.20;99.90
20158;DHT22;10239;56.820;24.416;2023-04-06T10:21:57;8.20;99.90
20158;DHT22;10239;56.820;24.416;2023-04-06T10:24:27;8.10;99.90
20158;DHT22;10239;56.820;24.416;2023-04-06T10:27:07;8.30;99.90
20158;DHT22;10239;56.820;24.416;2023-04-06T10:30:02;8.60;99.90
20158;DHT22;10239;56.820;24.416;2023-04-06T10:32:38;8.60;99.90
20158;DHT22;10239;56.820;24.416;2023-04-06T10:35:10;8.60;99.90
20158;DHT22;10239;56.820;24.416;2023-04-06T10:37:51;8.60;99.90
20158;DHT22;10239;56.820;24.416;2023-04-06T10:40:25;8.50;99.90
20158;DHT22;10239;56.820;24.416;2023-04-06T10:42:55;8.50;99.90
20158;DHT22;10239;56.820;24.416;2023-04-06T10:45:26;8.70;99.90
20158;DHT22;10239;56.820;24.416;2023-04-06T10:47:58;8.80;99.90
20158;DHT22;10239;56.820;24.416;2023-04-06T10:50:26;8.80;99.90
20158;DHT22;10239;56.820;24.416;2023-04-06T10:53:00;8.80;99.90
20158;DHT22;10239;56.820;24.416;2023-04-06T10:55:29;8.80;99.90
20158;DHT22;10239;56.820;24.416;2023-04-06T10:57:58;8.80;99.90
20158;DHT22;10239;56.820;24.416;2023-04-06T11:00:25;8.70;99.90
20158;DHT22;10239;56.820;24.416;2023-04-06T11:03:09;8.70;99.90
20158;DHT22;10239;56.820;24.416;2023-04-06T11:05:37;9.00;99.90
20158;DHT22;10239;56.820;24.416;2023-04-06T11:08:05;9.00;99.90
20158;DHT22;10239;56.820;24.416;2023-04-06T11:10:33;9.00;99.90
20158;DHT22;10239;56.820;24.416;2023-04-06T11:13:04;9.00;99.90
20158;DHT22;10239;56.820;24.416;2023-04-06T11:15:34;8.90;99.90
20158;DHT22;10239;56.820;24.416;2023-04-06T11:18:05;9.00;99.90
20158;DHT22;10239;56.820;24.416;2023-04-06T11:20:33;9.00;99.90
20158;DHT22;10239;56.820;24.416;2023-04-06T11:23:00;9.00;99.90
20158;DHT22;10239;56.820;24.416;2023-04-06T11:25:29;9.00;99.90
20158;DHT22;10239;56.820;24.416;2023-04-06T11:27:59;8.80;99.90
20158;DHT22;10239;56.820;24.416;2023-04-06T11:30:27;8.70;99.90
20158;DHT22;10239;56.820;24.416;2023-04-06T11:33:01;8.80;99.90
20158;DHT22;10239;56.820;24.416;2023-04-06T11:35:31;8.80;99.90
20158;DHT22;10239;56.820;24.416;2023-04-06T11:38:03;8.70;99.90
20158;DHT22;10239;56.820;24.416;2023-04-06T11:40:31;8.60;99.90
20158;DHT22;10239;56.820;24.416;2023-04-06T11:43:00;8.70;99.90
20158;DHT22;10239;56.820;24.416;2023-04-06T11:45:28;8.80;99.90
20158;DHT22;10239;56.820;24.416;2023-04-06T11:48:06;8.80;99.90
20158;DHT22;10239;56.820;24.416;2023-04-06T11:50:46;8.70;99.90
20158;DHT22;10239;56.820;24.416;2023-04-06T11:53:14;8.90;99.90
20158;DHT22;10239;56.820;24.416;2023-04-06T11:55:42;8.90;99.90
20158;DHT22;10239;56.820;24.416;2023-04-06T11:58:15;8.80;99.90
20158;DHT22;10239;56.820;24.416;2023-04-06T12:00:43;8.80;99.90
20158;DHT22;10239;56.820;24.416;2023-04-06T12:03:14;8.80;99.90
20158;DHT22;10239;56.820;24.416;2023-04-06T12:05:44;9.00;99.90
20158;DHT22;10239;56.820;24.416;2023-04-06T12:08:12;9.10;99.90
20158;DHT22;10239;56.820;24.416;2023-04-06T12:10:39;9.00;99.90
20158;DHT22;10239;56.820;24.416;2023-04-06T12:13:07;9.00;99.90
20158;DHT22;10239;56.820;24.416;2023-04-06T12:15:35;9.00;99.90
20158;DHT22;10239;56.820;24.416;2023-04-06T12:18:03;9.20;99.90
20158;DHT22;10239;56.820;24.416;2023-04-06T12:20:31;9.00;99.90
20158;DHT22;10239;56.820;24.416;2023-04-06T12:22:59;9.10;99.90
20158;DHT22;10239;56.820;24.416;2023-04-06T12:25:27;9.10;99.90
20158;DHT22;10239;56.820;24.416;2023-04-06T12:27:57;9.10;99.90
20158;DHT22;10239;56.820;24.416;2023-04-06T12:30:25;9.10;99.90
20158;DHT22;10239;56.820;24.416;2023-04-06T12:32:53;9.00;99.90
20158;DHT22;10239;56.820;24.416;2023-04-06T12:35:21;9.10;99.90
20158;DHT22;10239;56.820;24.416;2023-04-06T12:37:49;9.20;99.90
20158;DHT22;10239;56.820;24.416;2023-04-06T12:40:17;9.10;99.90
20158;DHT22;10239;56.820;24.416;2023-04-06T12:42:45;9.20;99.90
20158;DHT22;10239;56.820;24.416;2023-04-06T12:45:13;9.20;99.90
20158;DHT22;10239;56.820;24.416;2023-04-06T12:47:41;9.20;99.90
20158;DHT22;10239;56.820;24.416;2023-04-06T12:50:10;9.20;99.90
20158;DHT22;10239;56.820;24.416;2023-04-06T12:52:38;9.10;99.90
20158;DHT22;10239;56.820;24.416;2023-04-06T12:55:06;9.30;99.90
20158;DHT22;10239;56.820;24.416;2023-04-06T12:57:35;9.20;99.90
20158;DHT22;10239;56.820;24.416;2023-04-06T13:00:03;9.30;99.90
20158;DHT22;10239;56.820;24.416;2023-04-06T13:02:32;9.20;99.90
20158;DHT22;10239;56.820;24.416;2023-04-06T13:05:00;9.20;99.90
20158;DHT22;10239;56.820;24.416;2023-04-06T13:07:28;9.30;99.90
20158;DHT22;10239;56.820;24.416;2023-04-06T13:09:56;9.30;99.90
20158;DHT22;10239;56.820;24.416;2023-04-06T13:12:23;9.40;99.90
20158;DHT22;10239;56.820;24.416;2023-04-06T13:14:51;9.40;99.90
20158;DHT22;10239;56.820;24.416;2023-04-06T13:17:19;9.50;99.90
20158;DHT22;10239;56.820;24.416;2023-04-06T13:19:48;9.60;99.90
20158;DHT22;10239;56.820;24.416;2023-04-06T13:22:16;9.60;99.90
20158;DHT22;10239;56.820;24.416;2023-04-06T13:24:43;9.50;99.90
20158;DHT22;10239;56.820;24.416;2023-04-06T13:27:11;9.70;99.90
20158;DHT22;10239;56.820;24.416;2023-04-06T13:29:39;9.60;99.90
20158;DHT22;10239;56.820;24.416;2023-04-06T13:32:07;9.60;99.90
20158;DHT22;10239;56.820;24.416;2023-04-06T13:34:37;9.60;99.90
20158;DHT22;10239;56.820;24.416;2023-04-06T13:37:05;9.70;99.90
20158;DHT22;10239;56.820;24.416;2023-04-06T13:39:32;9.60;99.90
20158;DHT22;10239;56.820;24.416;2023-04-06T13:42:00;9.50;99.90
20158;DHT22;10239;56.820;24.416;2023-04-06T13:44:30;9.30;99.90
20158;DHT22;10239;56.820;24.416;2023-04-06T13:46:58;9.40;99.90
20158;DHT22;10239;56.820;24.416;2023-04-06T13:49:25;9.40;99.90
20158;DHT22;10239;56.820;24.416;2023-04-06T13:51:54;9.50;99.90
20158;DHT22;10239;56.820;24.416;2023-04-06T13:54:22;9.40;99.90
20158;DHT22;10239;56.820;24.416;2023-04-06T13:56:49;9.50;99.90
20158;DHT22;10239;56.820;24.416;2023-04-06T13:59:18;9.50;99.90
20158;DHT22;10239;56.820;24.416;2023-04-06T14:01:47;9.60;99.90
20158;DHT22;10239;56.820;24.416;2023-04-06T14:04:15;9.70;99.90
20158;DHT22;10239;56.820;24.416;2023-04-06T14:06:44;9.80;99.90
20158;DHT22;10239;56.820;24.416;2023-04-06T14:09:12;9.70;99.90
20158;DHT22;10239;56.820;24.416;2023-04-06T14:11:40;9.80;99.90
20158;DHT22;10239;56.820;24.416;2023-04-06T14:14:08;9.70;99.90
20158;DHT22;10239;56.820;24.416;2023-04-06T14:16:37;9.70;99.90
20158;DHT22;10239;56.820;24.416;2023-04-06T14:19:05;9.70;99.90
20158;DHT22;10239;56.820;24.416;2023-04-06T14:21:32;9.70;99.90
20158;DHT22;10239;56.820;24.416;2023-04-06T14:24:00;9.60;99.90
20158;DHT22;10239;56.820;24.416;2023-04-06T14:26:30;9.60;99.90
20158;DHT22;10239;56.820;24.416;2023-04-06T14:28:59;9.60;99.90
20158;DHT22;10239;56.820;24.416;2023-04-06T14:31:27;9.50;99.90
20158;DHT22;10239;56.820;24.416;2023-04-06T14:33:55;9.60;99.90
20158;DHT22;10239;56.820;24.416;2023-04-06T14:36:23;9.70;99.90
20158;DHT22;10239;56.820;24.416;2023-04-06T14:38:54;9.70;99.90
20158;DHT22;10239;56.820;24.416;2023-04-06T14:41:23;9.70;99.90
20158;DHT22;10239;56.820;24.416;2023-04-06T14:43:50;9.60;99.90
20158;DHT22;10239;56.820;24.416;2023-04-06T14:46:19;9.50;99.90
20158;DHT22;10239;56.820;24.416;2023-04-06T14:48:47;9.60;99.90
20158;DHT22;10239;56.820;24.416;2023-04-06T14:51:15;9.70;99.90
20158;DHT22;10239;56.820;24.416;2023-04-06T14:53:44;9.60;99.90
20158;DHT22;10239;56.820;24.416;2023-04-06T14:56:24;9.60;99.90
20158;DHT22;10239;56.820;24.416;2023-04-06T14:59:01;9.70;99.90
20158;DHT22;10239;56.820;24.416;2023-04-06T15:01:36;9.50;99.90
20158;DHT22;10239;56.820;24.416;2023-04-06T15:04:04;9.50;99.90
20158;DHT22;10239;56.820;24.416;2023-04-06T15:06:51;9.60;99.90
20158;DHT22;10239;56.820;24.416;2023-04-06T15:09:28;9.40;99.90
20158;DHT22;10239;56.820;24.416;2023-04-06T15:11:57;9.40;99.90
20158;DHT22;10239;56.820;24.416;2023-04-06T15:14:25;9.60;99.90
20158;DHT22;10239;56.820;24.416;2023-04-06T15:16:56;9.60;99.90
20158;DHT22;10239;56.820;24.416;2023-04-06T15:19:25;9.70;99.90
20158;DHT22;10239;56.820;24.416;2023-04-06T15:21:55;9.50;99.90
20158;DHT22;10239;56.820;24.416;2023-04-06T15:24:27;9.50;99.90
20158;DHT22;10239;56.820;24.416;2023-04-06T15:26:55;9.60;99.90
20158;DHT22;10239;56.820;24.416;2023-04-06T15:29:25;9.70;99.90
20158;DHT22;10239;56.820;24.416;2023-04-06T15:31:53;9.60;99.90
20158;DHT22;10239;56.820;24.416;2023-04-06T15:34:22;9.60;99.90
20158;DHT22;10239;56.820;24.416;2023-04-06T15:36:50;9.60;99.90
20158;DHT22;10239;56.820;24.416;2023-04-06T15:39:19;9.50;99.90
20158;DHT22;10239;56.820;24.416;2023-04-06T15:41:47;9.60;99.90
20158;DHT22;10239;56.820;24.416;2023-04-06T15:44:15;9.60;99.90
20158;DHT22;10239;56.820;24.416;2023-04-06T15:46:44;9.60;99.90
20158;DHT22;10239;56.820;24.416;2023-04-06T15:49:18;9.60;99.90
20158;DHT22;10239;56.820;24.416;2023-04-06T15:51:55;9.60;99.90
20158;DHT22;10239;56.820;24.416;2023-04-06T15:55:24;9.70;99.90
20158;DHT22;10239;56.820;24.416;2023-04-06T15:58:51;9.70;99.90
20158;DHT22;10239;56.820;24.416;2023-04-06T16:01:40;9.60;99.90
20158;DHT22;10239;56.820;24.416;2023-04-06T16:04:16;9.60;99.90
20158;DHT22;10239;56.820;24.416;2023-04-06T16:06:54;9.50;99.90
20158;DHT22;10239;56.820;24.416;2023-04-06T16:15:50;9.70;99.90